CPA786 VVTS-VHHH
Flight info
| Callsign | CPA786 |
|---|---|
| Flight time | N/A |
| Altitude | 33000 |
| Route | PATMA5G PATMA W12 PCA G221 BUNTA A1 IKELA/N0440F330 P901 IDOSI V561 CANTO |
| Aircraft | A21N/M-SDE2E3FGHIJ1RWXY/LB1 |
Departure
| Time | 2026-05-06 20:48 |
|---|---|
| Airport | Tan Son Nhat International Airport (VVTS) |
Arrival
| Time | N/A |
|---|---|
| Airport | Hong Kong International Airport (VHHH) |
| Time | Latitude | Longitude | Altitude | Speed | Heading |
|---|---|---|---|---|---|
| 2026-05-06 20:47 | 10.86770 | 106.80166 | 5289 ft | 265 kts | 84° |
| 2026-05-06 20:48 | 10.86964 | 106.82050 | 6028 ft | 269 kts | 84° |
| 2026-05-06 20:48 | 10.87160 | 106.83962 | 6738 ft | 273 kts | 84° |
| 2026-05-06 20:48 | 10.87357 | 106.85889 | 7449 ft | 276 kts | 84° |
| 2026-05-06 20:48 | 10.87558 | 106.87846 | 8151 ft | 279 kts | 84° |
| 2026-05-06 20:49 | 10.87761 | 106.89819 | 8860 ft | 282 kts | 84° |
| 2026-05-06 20:49 | 10.87965 | 106.91813 | 9556 ft | 285 kts | 84° |
| 2026-05-06 20:49 | 10.88170 | 106.93814 | 10052 ft | 295 kts | 84° |
| 2026-05-06 20:49 | 10.88392 | 106.95974 | 10179 ft | 317 kts | 84° |
| 2026-05-06 20:50 | 10.88629 | 106.98278 | 10374 ft | 334 kts | 84° |
| 2026-05-06 20:50 | 10.88873 | 107.00660 | 10860 ft | 341 kts | 84° |
| 2026-05-06 20:50 | 10.89145 | 107.03068 | 11437 ft | 345 kts | 80° |
| 2026-05-06 20:50 | 10.89831 | 107.05389 | 12005 ft | 349 kts | 66° |
| 2026-05-06 20:51 | 10.91091 | 107.07509 | 12569 ft | 354 kts | 52° |
| 2026-05-06 20:51 | 10.92872 | 107.09263 | 13141 ft | 359 kts | 37° |
| 2026-05-06 20:51 | 10.94999 | 107.10620 | 13708 ft | 363 kts | 32° |
| 2026-05-06 20:51 | 10.97175 | 107.11944 | 14214 ft | 366 kts | 32° |
| 2026-05-06 20:52 | 10.99368 | 107.13284 | 14717 ft | 369 kts | 32° |
| 2026-05-06 20:52 | 11.01582 | 107.14641 | 15228 ft | 373 kts | 32° |
| 2026-05-06 20:52 | 11.03808 | 107.16013 | 15735 ft | 376 kts | 32° |
| 2026-05-06 20:52 | 11.06026 | 107.17382 | 16225 ft | 379 kts | 32° |
| 2026-05-06 20:53 | 11.08294 | 107.18781 | 16721 ft | 383 kts | 32° |
| 2026-05-06 20:53 | 11.10584 | 107.20194 | 17214 ft | 386 kts | 32° |
| 2026-05-06 20:53 | 11.12888 | 107.21617 | 17691 ft | 389 kts | 32° |
| 2026-05-06 20:53 | 11.15215 | 107.23052 | 18157 ft | 393 kts | 32° |
| 2026-05-06 20:54 | 11.17638 | 107.24355 | 18553 ft | 396 kts | 26° |
| 2026-05-06 20:54 | 11.20141 | 107.25567 | 18958 ft | 399 kts | 26° |
| 2026-05-06 20:54 | 11.22661 | 107.26785 | 19362 ft | 401 kts | 26° |
| 2026-05-06 20:54 | 11.25159 | 107.27997 | 19758 ft | 404 kts | 26° |
| 2026-05-06 20:55 | 11.27704 | 107.29233 | 20147 ft | 406 kts | 26° |
| 2026-05-06 20:55 | 11.30264 | 107.30477 | 20543 ft | 408 kts | 26° |
| 2026-05-06 20:55 | 11.32834 | 107.31728 | 20922 ft | 411 kts | 26° |
| 2026-05-06 20:55 | 11.35427 | 107.32993 | 21314 ft | 413 kts | 26° |
| 2026-05-06 20:56 | 11.38026 | 107.34261 | 21681 ft | 416 kts | 26° |
| 2026-05-06 20:56 | 11.40646 | 107.35539 | 22063 ft | 418 kts | 26° |
| 2026-05-06 20:56 | 11.43284 | 107.36827 | 22441 ft | 421 kts | 26° |
| 2026-05-06 20:56 | 11.45933 | 107.38119 | 22795 ft | 423 kts | 26° |
| 2026-05-06 20:57 | 11.48574 | 107.39403 | 23146 ft | 426 kts | 26° |
| 2026-05-06 20:57 | 11.51253 | 107.40705 | 23482 ft | 428 kts | 26° |
| 2026-05-06 20:57 | 11.53954 | 107.42022 | 23767 ft | 430 kts | 26° |
| 2026-05-06 20:57 | 11.56668 | 107.43345 | 24060 ft | 433 kts | 26° |
| 2026-05-06 20:58 | 11.59397 | 107.44677 | 24352 ft | 435 kts | 26° |
| 2026-05-06 20:58 | 11.62136 | 107.46015 | 24643 ft | 437 kts | 26° |
| 2026-05-06 20:58 | 11.64853 | 107.47341 | 24930 ft | 439 kts | 26° |
| 2026-05-06 20:58 | 11.67628 | 107.48693 | 25228 ft | 442 kts | 26° |
| 2026-05-06 20:59 | 11.70408 | 107.50047 | 25509 ft | 444 kts | 26° |
| 2026-05-06 20:59 | 11.73204 | 107.51410 | 25792 ft | 446 kts | 26° |
| 2026-05-06 20:59 | 11.76007 | 107.52781 | 26073 ft | 449 kts | 26° |
| 2026-05-06 20:59 | 11.78831 | 107.54163 | 26348 ft | 451 kts | 26° |
| 2026-05-06 21:00 | 11.81671 | 107.55553 | 26620 ft | 453 kts | 26° |
| 2026-05-06 21:00 | 11.84521 | 107.56946 | 26889 ft | 455 kts | 27° |
| 2026-05-06 21:00 | 11.87393 | 107.58348 | 27151 ft | 458 kts | 27° |
| 2026-05-06 21:00 | 11.90270 | 107.59753 | 27418 ft | 460 kts | 27° |
| 2026-05-06 21:01 | 11.93127 | 107.61153 | 27663 ft | 462 kts | 27° |
| 2026-05-06 21:01 | 11.96038 | 107.62578 | 27920 ft | 465 kts | 27° |
| 2026-05-06 21:01 | 11.98964 | 107.64005 | 28166 ft | 467 kts | 27° |
| 2026-05-06 21:01 | 12.01905 | 107.65441 | 28412 ft | 469 kts | 27° |
| 2026-05-06 21:02 | 12.04859 | 107.66886 | 28659 ft | 471 kts | 27° |
| 2026-05-06 21:02 | 12.07820 | 107.68335 | 28907 ft | 473 kts | 27° |
| 2026-05-06 21:02 | 12.10797 | 107.69797 | 29146 ft | 475 kts | 27° |
| 2026-05-06 21:02 | 12.13782 | 107.71260 | 29396 ft | 476 kts | 27° |
| 2026-05-06 21:03 | 12.16740 | 107.72709 | 29619 ft | 478 kts | 27° |
| 2026-05-06 21:03 | 12.19744 | 107.74181 | 29854 ft | 480 kts | 27° |
| 2026-05-06 21:03 | 12.22761 | 107.75660 | 30076 ft | 481 kts | 27° |
| 2026-05-06 21:03 | 12.25798 | 107.77151 | 30286 ft | 483 kts | 26° |
| 2026-05-06 21:04 | 12.28838 | 107.78642 | 30523 ft | 484 kts | 26° |
| 2026-05-06 21:04 | 12.31823 | 107.80148 | 30801 ft | 483 kts | 30° |
| 2026-05-06 21:04 | 12.34621 | 107.82024 | 31128 ft | 480 kts | 39° |
| 2026-05-06 21:04 | 12.37119 | 107.84271 | 31448 ft | 478 kts | 44° |
| 2026-05-06 21:05 | 12.39549 | 107.86586 | 31780 ft | 477 kts | 44° |
| 2026-05-06 21:05 | 12.41981 | 107.88900 | 32117 ft | 475 kts | 44° |
| 2026-05-06 21:05 | 12.44413 | 107.91206 | 32453 ft | 474 kts | 44° |
| 2026-05-06 21:05 | 12.46834 | 107.93497 | 32762 ft | 474 kts | 43° |
| 2026-05-06 21:06 | 12.49229 | 107.95764 | 32889 ft | 472 kts | 43° |
| 2026-05-06 21:06 | 12.53979 | 108.00261 | 32907 ft | 460 kts | 43° |
| 2026-05-06 21:07 | 12.58678 | 108.04714 | 32907 ft | 459 kts | 43° |
| 2026-05-06 21:07 | 12.63371 | 108.09174 | 32913 ft | 460 kts | 43° |
| 2026-05-06 21:08 | 12.68195 | 108.13406 | 32909 ft | 460 kts | 35° |